This is the latest recevied weather packets stored in our database for station/object EFTP. If no packets are shown the sender has not sent any weather packets the latest 10 day(s).
| Time | Temp. | Humidity | Pressure | Rain* | Wind** | Luminosity | Snow |
|---|---|---|---|---|---|---|---|
| 1777654020 | 18.89° C | 28% | 1014.8 hPa | - | - | - | - |
| 1777652820 | 18.89° C | 29% | 1015 hPa | - | - | - | - |
| 1777651620 | 19.44° C | 29% | 1015.2 hPa | - | - | - | - |
| 1777650420 | 19.44° C | 29% | 1015.2 hPa | - | - | - | - |
| 1777649220 | 19.44° C | 29% | 1015.5 hPa | - | - | - | - |
| 1777648019 | 19.44° C | 27% | 1015.7 hPa | - | - | - | - |
| 1777646819 | 18.89° C | 28% | 1015.9 hPa | - | - | - | - |
| 1777645620 | 19.44° C | 27% | 1016.1 hPa | - | - | - | - |
| 1777644419 | 19.44° C | 29% | 1016.4 hPa | - | - | - | - |
| 1777643219 | 18.89° C | 29% | 1016.6 hPa | - | - | - | - |
| 1777642020 | 18.89° C | 30% | 1016.8 hPa | - | - | - | - |
| 1777640819 | 19.44° C | 30% | 1017.1 hPa | - | - | - | - |
| 1777634819 | 17.22° C | 36% | 1018.4 hPa | - | - | - | - |
| 1777633619 | 17.22° C | 35% | 1018.6 hPa | - | - | - | - |
| 1777632418 | 17.22° C | 36% | 1018.8 hPa | - | - | - | - |
| 1777631219 | 16.11° C | 39% | 1019 hPa | - | - | - | - |
| 1777630019 | 15.56° C | 41% | 1019.1 hPa | - | - | - | - |
| 1777628819 | 15° C | 43% | 1019.3 hPa | - | - | - | - |
| 1777627619 | 15° C | 45% | 1019.5 hPa | - | - | - | - |
| 1777626418 | 13.89° C | 48% | 1019.8 hPa | - | - | - | - |
| 1777625219 | 13.89° C | 49% | 1020 hPa | - | - | - | - |
| 1777624019 | 12.78° C | 52% | 1020.1 hPa | - | - | - | - |
| 1777622820 | 12.78° C | 54% | 1020.1 hPa | - | - | - | - |
| 1777621618 | 12.22° C | 54% | 1020.2 hPa | - | - | - | - |
| 1777620418 | 11.67° C | 57% | 1020.3 hPa | - | - | - | - |
* Rain since midnight (hover to see other rain measurements)
** Current wind speed in m/s (hover to see current wind gust speed)